createdAt,value
2022-08-26T00:00:40.618Z,0.00
2022-08-26T00:01:40.648Z,0.00
2022-08-26T00:02:40.728Z,0.00
2022-08-26T00:03:40.760Z,0.00
2022-08-26T00:04:40.736Z,0.00
2022-08-26T00:05:40.771Z,0.00
2022-08-26T00:06:42.385Z,0.00
2022-08-26T00:07:40.832Z,0.00
2022-08-26T00:08:40.861Z,0.00
2022-08-26T00:09:40.894Z,0.00
2022-08-26T00:10:40.923Z,0.00
2022-08-26T00:11:40.955Z,0.00
2022-08-26T00:12:40.984Z,0.00
2022-08-26T00:13:41.016Z,0.00
2022-08-26T00:15:41.085Z,0.00
2022-08-26T00:16:47.236Z,0.00
2022-08-26T00:17:41.136Z,0.00
2022-08-26T00:18:42.180Z,0.00
2022-08-26T00:19:41.401Z,0.00
2022-08-26T00:20:41.228Z,0.00
2022-08-26T00:21:41.257Z,0.00
2022-08-26T00:22:41.893Z,0.00
2022-08-26T00:23:42.534Z,0.00
2022-08-26T00:24:41.339Z,0.00
2022-08-26T00:25:42.570Z,0.00
2022-08-26T00:26:41.622Z,0.00
2022-08-26T00:27:41.429Z,0.00
2022-08-26T00:28:41.462Z,0.00
2022-08-26T00:30:34.062Z,0.00
2022-08-26T00:31:34.154Z,0.00
2022-08-26T00:32:34.122Z,0.00
2022-08-26T00:33:36.775Z,0.00
2022-08-26T00:35:34.221Z,0.00
2022-08-26T00:36:34.254Z,0.00
2022-08-26T00:37:34.282Z,0.00
2022-08-26T00:38:34.299Z,0.00
2022-08-26T00:40:34.457Z,0.00
2022-08-26T00:41:34.403Z,0.00
2022-08-26T00:42:34.436Z,0.00
2022-08-26T00:43:47.287Z,0.00
2022-08-26T00:44:34.496Z,0.00
2022-08-26T00:45:34.735Z,0.00
2022-08-26T00:47:34.590Z,0.00
2022-08-26T00:48:34.618Z,0.00
2022-08-26T00:49:34.646Z,0.00
2022-08-26T00:50:34.682Z,0.00
2022-08-26T00:51:34.912Z,0.00
2022-08-26T00:53:34.770Z,0.00
2022-08-26T00:54:35.000Z,0.00
2022-08-26T00:55:38.015Z,0.00
2022-08-26T00:56:34.859Z,0.00
2022-08-26T00:57:34.880Z,0.00
2022-08-26T00:58:34.922Z,0.00
2022-08-26T00:59:34.953Z,0.00
2022-08-26T01:01:35.114Z,0.00
2022-08-26T01:02:35.465Z,0.00
2022-08-26T01:03:35.074Z,0.00
2022-08-26T01:04:35.103Z,0.00
2022-08-26T01:05:35.136Z,0.00
2022-08-26T01:06:35.168Z,0.00
2022-08-26T01:09:35.464Z,0.00
2022-08-26T01:15:36.955Z,0.00
2022-08-26T01:28:36.145Z,0.00
2022-08-26T01:29:36.172Z,0.00
2022-08-26T01:30:36.096Z,0.00
2022-08-26T01:31:35.950Z,0.00
2022-08-26T01:32:35.959Z,0.00
2022-08-26T01:33:42.103Z,0.00
2022-08-26T01:35:36.248Z,0.00
2022-08-26T01:36:36.061Z,0.00
2022-08-26T01:37:36.095Z,0.00
2022-08-26T01:39:36.164Z,0.00
2022-08-26T01:40:36.200Z,0.00
2022-08-26T01:41:36.228Z,0.00
2022-08-26T01:42:36.258Z,0.00
2022-08-26T01:43:36.275Z,0.00
2022-08-26T01:44:36.319Z,0.00
2022-08-26T01:45:36.589Z,0.00
2022-08-26T01:46:36.368Z,0.00
2022-08-26T01:47:36.399Z,0.00
2022-08-26T01:49:36.662Z,0.00
2022-08-26T01:51:36.838Z,0.00
2022-08-26T01:52:36.567Z,0.00
2022-08-26T01:53:36.584Z,0.00
2022-08-26T01:54:36.625Z,0.00
2022-08-26T01:55:36.651Z,0.00
2022-08-26T01:56:36.993Z,0.00
2022-08-26T01:57:36.701Z,0.00
2022-08-26T01:58:36.951Z,0.00
2022-08-26T01:59:36.762Z,0.00
2022-08-26T02:01:37.041Z,0.00
2022-08-26T02:03:38.725Z,0.00
2022-08-26T02:04:37.317Z,0.00
2022-08-26T02:05:36.955Z,0.00
2022-08-26T02:06:37.298Z,0.00
2022-08-26T02:07:37.019Z,0.00
2022-08-26T02:08:37.050Z,0.00
2022-08-26T02:09:38.421Z,0.00
2022-08-26T02:10:37.311Z,0.00
2022-08-26T02:11:37.125Z,0.00
2022-08-26T02:12:37.374Z,0.00
2022-08-26T02:14:37.230Z,0.00
2022-08-26T02:15:37.362Z,0.00
2022-08-26T02:16:38.082Z,0.00
2022-08-26T02:18:37.356Z,0.00
2022-08-26T02:20:38.830Z,0.00
2022-08-26T02:23:37.707Z,0.00
2022-08-26T02:24:37.533Z,0.00
2022-08-26T02:25:37.568Z,0.00
2022-08-26T02:26:37.798Z,0.00
2022-08-26T02:27:37.631Z,0.00
2022-08-26T02:28:37.655Z,0.00
2022-08-26T02:30:37.719Z,0.00
2022-08-26T02:31:38.139Z,0.00
2022-08-26T02:33:37.811Z,0.00
2022-08-26T02:34:37.841Z,0.00
2022-08-26T02:35:37.872Z,0.00
2022-08-26T02:37:38.239Z,0.00
2022-08-26T02:39:38.503Z,0.00
2022-08-26T02:40:38.424Z,0.00
2022-08-26T02:41:44.946Z,0.00
2022-08-26T02:42:38.081Z,0.00
2022-08-26T02:43:38.111Z,0.00
2022-08-26T02:45:38.160Z,0.00
2022-08-26T02:47:38.439Z,0.00
2022-08-26T02:49:38.296Z,0.00
2022-08-26T02:50:38.324Z,0.00
2022-08-26T02:51:38.352Z,0.00
2022-08-26T02:52:38.390Z,0.00
2022-08-26T02:53:38.411Z,0.00
2022-08-26T02:54:39.648Z,0.00
2022-08-26T02:55:38.461Z,0.00
2022-08-26T02:56:38.492Z,0.00
2022-08-26T02:57:38.523Z,0.00
2022-08-26T02:59:38.585Z,0.00
2022-08-26T03:00:38.723Z,0.00
2022-08-26T03:04:39.662Z,0.00
2022-08-26T03:05:38.781Z,0.00
2022-08-26T03:06:39.323Z,0.00
2022-08-26T03:09:39.909Z,0.00
2022-08-26T03:13:40.337Z,0.00
2022-08-26T03:15:39.284Z,0.00
2022-08-26T03:18:39.776Z,0.00
2022-08-26T03:21:39.469Z,0.00
2022-08-26T03:22:39.287Z,0.00
2022-08-26T03:23:39.525Z,0.00
2022-08-26T03:25:40.299Z,0.00
2022-08-26T03:26:39.612Z,0.00
2022-08-26T03:27:39.648Z,0.00
2022-08-26T03:30:39.534Z,0.00
2022-08-26T03:31:39.639Z,0.00
2022-08-26T03:32:39.797Z,0.00
2022-08-26T03:34:39.854Z,0.00
2022-08-26T03:36:39.917Z,0.00
2022-08-26T03:37:40.147Z,0.00
2022-08-26T03:41:39.853Z,0.00
2022-08-26T03:42:40.099Z,0.00
2022-08-26T03:45:39.975Z,0.00
2022-08-26T03:46:40.098Z,0.00
2022-08-26T03:47:40.050Z,0.00
2022-08-26T03:48:40.076Z,0.00
2022-08-26T03:50:40.340Z,0.00
2022-08-26T03:51:40.369Z,0.00
2022-08-26T03:54:40.248Z,0.00
2022-08-26T03:55:40.595Z,0.00
2022-08-26T03:56:41.625Z,0.00
2022-08-26T03:57:40.361Z,0.00
2022-08-26T03:58:42.874Z,0.00
2022-08-26T03:59:41.342Z,0.00
2022-08-26T04:00:40.654Z,0.00
2022-08-26T04:02:40.549Z,0.00
2022-08-26T04:04:41.478Z,0.00
2022-08-26T04:05:40.578Z,0.00
2022-08-26T04:06:40.622Z,0.00
2022-08-26T04:07:40.850Z,0.00
2022-08-26T04:08:40.682Z,4.00
2022-08-26T04:09:40.713Z,4.00
2022-08-26T04:10:40.948Z,0.00
2022-08-26T04:12:40.802Z,4.00
2022-08-26T04:13:40.821Z,4.00
2022-08-26T04:14:40.849Z,0.00
2022-08-26T04:15:41.245Z,4.00
2022-08-26T04:16:40.924Z,8.00
2022-08-26T04:17:41.145Z,4.00
2022-08-26T04:18:46.596Z,8.00
2022-08-26T04:19:41.004Z,8.00
2022-08-26T04:20:41.032Z,8.00
2022-08-26T04:21:41.076Z,8.00
2022-08-26T04:22:41.093Z,12.00
2022-08-26T04:23:47.597Z,12.00
2022-08-26T04:24:41.156Z,16.00
2022-08-26T04:25:41.388Z,20.00
2022-08-26T04:26:42.692Z,20.00
2022-08-26T04:27:41.464Z,24.00
2022-08-26T04:28:41.275Z,24.00
2022-08-26T04:29:41.308Z,28.00
2022-08-26T04:30:41.549Z,28.00
2022-08-26T04:31:41.567Z,36.00
2022-08-26T04:32:41.408Z,36.00
2022-08-26T04:33:41.779Z,40.00
2022-08-26T04:36:41.947Z,56.00
2022-08-26T04:37:43.154Z,56.00
2022-08-26T04:38:41.589Z,64.00
2022-08-26T04:39:41.614Z,72.00
2022-08-26T04:40:41.642Z,76.00
2022-08-26T04:41:41.685Z,84.00
2022-08-26T04:42:41.703Z,92.00
2022-08-26T04:44:41.967Z,104.00
2022-08-26T04:45:41.794Z,104.00
2022-08-26T04:46:43.718Z,116.00
2022-08-26T04:47:41.865Z,120.00
2022-08-26T04:48:42.306Z,128.00
2022-08-26T04:49:41.923Z,132.00
2022-08-26T04:50:42.162Z,132.00
2022-08-26T04:51:41.986Z,136.00
2022-08-26T04:53:42.050Z,156.00
2022-08-26T04:54:42.155Z,172.00
2022-08-26T04:55:42.837Z,184.00
2022-08-26T04:56:42.143Z,196.00
2022-08-26T04:58:42.207Z,244.00
2022-08-26T04:59:42.231Z,248.00
2022-08-26T05:00:42.466Z,248.00
2022-08-26T05:01:42.544Z,252.00
2022-08-26T05:02:42.323Z,272.00
2022-08-26T05:03:42.381Z,288.00
2022-08-26T05:04:42.593Z,284.00
2022-08-26T05:05:42.416Z,280.00
2022-08-26T05:06:42.443Z,284.00
2022-08-26T05:07:42.676Z,292.00
2022-08-26T05:09:42.538Z,320.00
2022-08-26T05:10:42.774Z,344.00
2022-08-26T05:11:42.806Z,380.00
2022-08-26T05:12:42.629Z,440.00
2022-08-26T05:13:42.660Z,468.00
2022-08-26T05:14:43.293Z,476.00
2022-08-26T05:15:42.772Z,460.00
2022-08-26T05:17:42.783Z,436.00
2022-08-26T05:18:43.016Z,452.00
2022-08-26T05:19:43.164Z,492.00
2022-08-26T05:20:42.874Z,516.00
2022-08-26T05:21:42.904Z,516.00
2022-08-26T05:22:43.343Z,512.00
2022-08-26T05:23:43.256Z,496.00
2022-08-26T05:24:42.996Z,496.00
2022-08-26T05:25:43.014Z,516.00
2022-08-26T05:26:44.549Z,536.00
2022-08-26T05:27:43.984Z,568.00
2022-08-26T05:28:43.308Z,580.00
2022-08-26T05:29:43.454Z,552.00
2022-08-26T05:30:43.260Z,548.00
2022-08-26T05:31:43.255Z,552.00
2022-08-26T05:32:43.242Z,584.00
2022-08-26T05:33:43.677Z,636.00
2022-08-26T05:34:43.329Z,668.00
2022-08-26T05:35:43.589Z,740.00
2022-08-26T05:36:43.364Z,792.00
2022-08-26T05:37:43.379Z,768.00
2022-08-26T05:38:43.931Z,752.00
2022-08-26T05:39:51.174Z,756.00
2022-08-26T05:42:43.542Z,924.00
2022-08-26T05:45:45.467Z,964.00
2022-08-26T05:46:44.093Z,944.00
2022-08-26T05:48:44.271Z,912.00
2022-08-26T05:50:46.729Z,860.00
2022-08-26T05:55:44.549Z,944.00
2022-08-26T05:56:44.788Z,1012.00
2022-08-26T05:57:44.408Z,1100.00
2022-08-26T06:00:44.391Z,1164.00
2022-08-26T06:16:44.789Z,1268.00
2022-08-26T06:28:46.068Z,1292.00
2022-08-26T06:33:45.712Z,1572.00
2022-08-26T06:35:45.167Z,1868.00
2022-08-26T06:37:45.228Z,1860.00
2022-08-26T06:38:45.551Z,1956.00
2022-08-26T06:39:45.895Z,2064.00
2022-08-26T06:40:45.322Z,2088.00
2022-08-26T06:42:45.368Z,1828.00
2022-08-26T06:44:45.442Z,1520.00
2022-08-26T06:45:45.468Z,1504.00
2022-08-26T06:46:45.575Z,1528.00
2022-08-26T06:47:45.733Z,1612.00
2022-08-26T06:48:46.355Z,1672.00
2022-08-26T06:49:45.590Z,1692.00
2022-08-26T06:50:45.833Z,1680.00
2022-08-26T06:51:45.734Z,1680.00
2022-08-26T06:52:45.884Z,1748.00
2022-08-26T06:53:45.714Z,1812.00
2022-08-26T06:54:46.148Z,1844.00
2022-08-26T06:56:45.804Z,1944.00
2022-08-26T06:57:47.233Z,2052.00
2022-08-26T06:58:46.574Z,2152.00
2022-08-26T06:59:46.091Z,2176.00
2022-08-26T07:02:46.180Z,1924.00
2022-08-26T07:03:46.622Z,1904.00
2022-08-26T07:04:47.691Z,1960.00
2022-08-26T07:05:46.070Z,2036.00
2022-08-26T07:06:46.105Z,2072.00
2022-08-26T07:07:46.122Z,2192.00
2022-08-26T07:08:46.169Z,2296.00
2022-08-26T07:09:46.194Z,2352.00
2022-08-26T07:10:46.837Z,2340.00
2022-08-26T07:11:46.255Z,2304.00
2022-08-26T07:14:47.499Z,1688.00
2022-08-26T07:15:46.743Z,1480.00
2022-08-26T07:16:46.921Z,1372.00
2022-08-26T07:18:47.085Z,1308.00
2022-08-26T07:19:46.504Z,1332.00
2022-08-26T07:23:46.627Z,1572.00
2022-08-26T07:24:47.372Z,1644.00
2022-08-26T07:25:47.094Z,1732.00
2022-08-26T07:26:47.026Z,1840.00
2022-08-26T07:27:46.954Z,1888.00
2022-08-26T07:28:46.781Z,1920.00
2022-08-26T07:29:46.817Z,1960.00
2022-08-26T07:31:46.872Z,2076.00
2022-08-26T07:33:47.229Z,2396.00
2022-08-26T07:34:46.967Z,2668.00
2022-08-26T07:35:47.310Z,2920.00
2022-08-26T07:36:47.027Z,3136.00
2022-08-26T07:37:47.063Z,3256.00
2022-08-26T07:38:47.324Z,3320.00
2022-08-26T07:39:47.485Z,3344.00
2022-08-26T07:40:47.155Z,3380.00
2022-08-26T07:45:47.549Z,3384.00
2022-08-26T07:47:47.776Z,3124.00
2022-08-26T07:48:47.401Z,2972.00
2022-08-26T07:49:47.839Z,2772.00
2022-08-26T07:50:50.128Z,2584.00
2022-08-26T07:52:47.530Z,2296.00
2022-08-26T07:54:47.990Z,2076.00
2022-08-26T07:56:48.351Z,1920.00
2022-08-26T07:57:48.189Z,1868.00
2022-08-26T07:58:51.272Z,1856.00
2022-08-26T08:00:47.977Z,1928.00
2022-08-26T08:01:47.890Z,1976.00
2022-08-26T08:03:48.073Z,2044.00
2022-08-26T08:07:48.244Z,2040.00
2022-08-26T08:08:50.913Z,2124.00
2022-08-26T08:09:48.752Z,2232.00
2022-08-26T08:10:48.850Z,2340.00
2022-08-26T08:11:48.521Z,2436.00
2022-08-26T08:15:50.318Z,2752.00
2022-08-26T08:19:48.367Z,2932.00
2022-08-26T08:23:51.828Z,2820.00
2022-08-26T08:24:49.962Z,2688.00
2022-08-26T08:25:48.957Z,2596.00
2022-08-26T08:26:48.779Z,2532.00
2022-08-26T08:28:48.951Z,2448.00
2022-08-26T08:29:48.871Z,2416.00
2022-08-26T08:31:56.620Z,2384.00
2022-08-26T08:34:49.342Z,2664.00
2022-08-26T08:36:48.876Z,2832.00
2022-08-26T08:37:48.921Z,2832.00
2022-08-26T08:38:48.936Z,2708.00
2022-08-26T08:39:49.153Z,2572.00
2022-08-26T08:40:49.009Z,2508.00
2022-08-26T08:42:49.110Z,2628.00
2022-08-26T08:45:49.575Z,2788.00
2022-08-26T08:46:49.687Z,2896.00
2022-08-26T08:47:49.231Z,3032.00
2022-08-26T08:48:49.263Z,3160.00
2022-08-26T08:50:49.726Z,3180.00
2022-08-26T08:51:49.345Z,3184.00
2022-08-26T08:52:49.787Z,3464.00
2022-08-26T08:54:49.846Z,3852.00
2022-08-26T08:55:49.475Z,3920.00
2022-08-26T08:57:49.534Z,4092.00
2022-08-26T08:58:49.769Z,4244.00
2022-08-26T08:59:50.003Z,4296.00
2022-08-26T09:00:50.236Z,4172.00
2022-08-26T09:01:52.322Z,3980.00
2022-08-26T09:02:49.942Z,3860.00
2022-08-26T09:04:49.956Z,4076.00
2022-08-26T09:06:49.848Z,4368.00
2022-08-26T09:07:50.811Z,4396.00
2022-08-26T09:08:50.459Z,4316.00
2022-08-26T09:10:49.938Z,4088.00
2022-08-26T09:28:52.029Z,4832.00
2022-08-26T09:46:51.053Z,5512.00
2022-08-26T09:47:51.085Z,5356.00
2022-08-26T09:49:51.572Z,5004.00
2022-08-26T09:50:51.193Z,4880.00
2022-08-26T09:51:51.221Z,4748.00
2022-08-26T09:53:51.489Z,4676.00
2022-08-26T09:57:51.461Z,4544.00
2022-08-26T09:58:51.847Z,4452.00
2022-08-26T10:01:51.771Z,4528.00
2022-08-26T10:08:51.750Z,4400.00
2022-08-26T10:09:51.974Z,4568.00
2022-08-26T10:10:53.051Z,4880.00
2022-08-26T10:11:52.054Z,5260.00
2022-08-26T10:12:51.875Z,5536.00
2022-08-26T10:14:52.256Z,5528.00
2022-08-26T10:15:51.960Z,5440.00
2022-08-26T10:17:52.035Z,5904.00
2022-08-26T10:21:53.998Z,6148.00
2022-08-26T10:22:52.196Z,5716.00
2022-08-26T10:23:52.227Z,5424.00
2022-08-26T10:24:55.100Z,5284.00
2022-08-26T10:25:52.491Z,5188.00
2022-08-26T10:29:52.508Z,5172.00
2022-08-26T10:30:52.432Z,5164.00
2022-08-26T10:31:52.822Z,5156.00
2022-08-26T10:32:52.506Z,5212.00
2022-08-26T10:33:55.472Z,5252.00
2022-08-26T10:35:52.600Z,4812.00
2022-08-26T10:37:13.907Z,4472.00
2022-08-26T10:37:53.070Z,4372.00
2022-08-26T10:38:53.000Z,4560.00
2022-08-26T10:39:57.122Z,4772.00
2022-08-26T10:40:53.003Z,5104.00
2022-08-26T10:41:52.777Z,5512.00
2022-08-26T10:42:52.822Z,5856.00
2022-08-26T10:43:53.468Z,6004.00
2022-08-26T10:44:52.879Z,6200.00
2022-08-26T10:45:52.982Z,6436.00
2022-08-26T10:46:52.945Z,6748.00
2022-08-26T10:47:53.183Z,7080.00
2022-08-26T10:48:52.998Z,7336.00
2022-08-26T10:49:54.779Z,7616.00
2022-08-26T10:51:53.306Z,8008.00
2022-08-26T10:53:53.169Z,7676.00
2022-08-26T10:54:53.199Z,7480.00
2022-08-26T10:55:53.230Z,7408.00
2022-08-26T10:56:53.566Z,7168.00
2022-08-26T10:57:53.299Z,6808.00
2022-08-26T10:58:53.326Z,6508.00
2022-08-26T11:01:53.836Z,6648.00
2022-08-26T11:02:53.655Z,6712.00
2022-08-26T11:03:53.916Z,6884.00
2022-08-26T11:04:53.518Z,7448.00
2022-08-26T11:05:53.547Z,7920.00
2022-08-26T11:06:53.782Z,7848.00
2022-08-26T11:07:53.915Z,7520.00
2022-08-26T11:08:53.644Z,7092.00
2022-08-26T11:09:53.674Z,6708.00
2022-08-26T11:11:53.737Z,6616.00
2022-08-26T11:13:54.003Z,6476.00
2022-08-26T11:14:58.755Z,6388.00
2022-08-26T11:15:54.268Z,6296.00
2022-08-26T11:17:53.927Z,6096.00
2022-08-26T11:18:53.955Z,6036.00
2022-08-26T11:20:03.893Z,5824.00
2022-08-26T11:20:54.020Z,5516.00
2022-08-26T11:21:54.257Z,5228.00
2022-08-26T11:22:54.085Z,4972.00
2022-08-26T11:24:54.148Z,4904.00
2022-08-26T11:25:54.487Z,4864.00
2022-08-26T11:26:55.337Z,4832.00
2022-08-26T11:27:54.655Z,4780.00
2022-08-26T11:30:58.051Z,5448.00
2022-08-26T11:31:54.483Z,5888.00
2022-08-26T11:32:54.616Z,6396.00
2022-08-26T11:33:55.143Z,6616.00
2022-08-26T11:34:54.677Z,6592.00
2022-08-26T11:37:54.562Z,6880.00
2022-08-26T11:38:55.003Z,7324.00
2022-08-26T11:39:57.095Z,7696.00
2022-08-26T11:40:54.655Z,8112.00
2022-08-26T11:42:55.126Z,8944.00
2022-08-26T11:43:54.956Z,9180.00
2022-08-26T11:44:56.201Z,9240.00
2022-08-26T11:45:55.146Z,9344.00
2022-08-26T11:49:54.938Z,9592.00
2022-08-26T11:50:54.972Z,9760.00
2022-08-26T11:51:55.206Z,9860.00
2022-08-26T11:52:55.226Z,9988.00
2022-08-26T11:53:55.068Z,9992.00
2022-08-26T11:54:55.099Z,9896.00
2022-08-26T11:55:55.332Z,9344.00
2022-08-26T11:57:55.508Z,8020.00
2022-08-26T11:58:55.230Z,7520.00
2022-08-26T11:59:55.987Z,7176.00
2022-08-26T12:00:55.494Z,7096.00
2022-08-26T12:01:55.328Z,7112.00
2022-08-26T12:02:55.358Z,7272.00
2022-08-26T12:03:55.467Z,7524.00
2022-08-26T12:04:55.425Z,7708.00
2022-08-26T12:05:55.451Z,7752.00
2022-08-26T12:06:55.689Z,7628.00
2022-08-26T12:07:55.505Z,7532.00
2022-08-26T12:08:55.753Z,7660.00
2022-08-26T12:09:56.386Z,7724.00
2022-08-26T12:10:55.618Z,7692.00
2022-08-26T12:11:57.934Z,7652.00
2022-08-26T12:12:55.882Z,7608.00
2022-08-26T12:13:55.910Z,7552.00
2022-08-26T12:14:55.741Z,7592.00
2022-08-26T12:15:55.949Z,7852.00
2022-08-26T12:16:56.572Z,8336.00
2022-08-26T12:17:55.837Z,8604.00
2022-08-26T12:18:55.871Z,8728.00
2022-08-26T12:19:55.888Z,8704.00
2022-08-26T12:20:56.140Z,8576.00
2022-08-26T12:21:56.275Z,8572.00
2022-08-26T12:23:56.234Z,8988.00
2022-08-26T12:24:56.266Z,9496.00
2022-08-26T12:25:57.497Z,10032.00
2022-08-26T12:26:56.112Z,10608.00
2022-08-26T12:27:56.146Z,10816.00
2022-08-26T12:28:56.178Z,10628.00
2022-08-26T12:29:56.213Z,9972.00
2022-08-26T12:30:56.242Z,8988.00
2022-08-26T12:31:56.307Z,8092.00
2022-08-26T12:32:57.781Z,7524.00
2022-08-26T12:33:56.344Z,7236.00
2022-08-26T12:34:56.420Z,7080.00
2022-08-26T12:35:57.004Z,7012.00
2022-08-26T12:36:56.562Z,6940.00
2022-08-26T12:37:56.483Z,6956.00
2022-08-26T12:38:58.448Z,6980.00
2022-08-26T12:39:56.564Z,6964.00
2022-08-26T12:40:56.565Z,6928.00
2022-08-26T12:41:56.605Z,6952.00
2022-08-26T12:42:56.626Z,7080.00
2022-08-26T12:43:56.662Z,7344.00
2022-08-26T12:44:56.694Z,7812.00
2022-08-26T12:45:56.828Z,8124.00
2022-08-26T12:46:56.757Z,8172.00
2022-08-26T12:47:56.791Z,8164.00
2022-08-26T12:48:56.824Z,7916.00
2022-08-26T12:49:56.856Z,7080.00
2022-08-26T12:50:56.884Z,6416.00
2022-08-26T12:51:56.920Z,6252.00
2022-08-26T12:52:56.950Z,6232.00
2022-08-26T12:53:56.984Z,6192.00
2022-08-26T12:54:57.225Z,6180.00
2022-08-26T12:55:57.048Z,6212.00
2022-08-26T12:56:57.080Z,6104.00
2022-08-26T12:57:57.112Z,6212.00
2022-08-26T12:58:57.150Z,6648.00
2022-08-26T12:59:57.176Z,7368.00
2022-08-26T13:00:57.333Z,8084.00
2022-08-26T13:01:57.418Z,8664.00
2022-08-26T13:02:57.272Z,9036.00
2022-08-26T13:03:57.305Z,9276.00
2022-08-26T13:05:00.540Z,9440.00
2022-08-26T13:05:57.370Z,9324.00
2022-08-26T13:06:57.399Z,9172.00
2022-08-26T13:07:57.435Z,9008.00
2022-08-26T13:08:57.466Z,8668.00
2022-08-26T13:09:57.501Z,8236.00
2022-08-26T13:10:57.529Z,7984.00
2022-08-26T13:11:57.566Z,7944.00
2022-08-26T13:12:57.596Z,7944.00
2022-08-26T13:13:57.629Z,7748.00
2022-08-26T13:14:57.660Z,7456.00
2022-08-26T13:15:57.700Z,7124.00
2022-08-26T13:16:57.721Z,6844.00
2022-08-26T13:17:58.225Z,6836.00
2022-08-26T13:18:58.306Z,6820.00
2022-08-26T13:20:58.269Z,6332.00
2022-08-26T13:22:00.928Z,5828.00
2022-08-26T13:30:59.599Z,6896.00
2022-08-26T13:32:58.306Z,6812.00
2022-08-26T13:33:58.485Z,6472.00
2022-08-26T13:35:58.546Z,5828.00
2022-08-26T13:37:58.411Z,6352.00
2022-08-26T13:39:59.120Z,6548.00
2022-08-26T13:42:59.079Z,7412.00
2022-08-26T13:44:58.633Z,7232.00
2022-08-26T13:50:58.825Z,5520.00
2022-08-26T13:54:58.948Z,5380.00
2022-08-26T13:55:59.278Z,5540.00
2022-08-26T13:56:59.420Z,5556.00
2022-08-26T13:57:59.461Z,5732.00
2022-08-26T13:58:59.078Z,6112.00
2022-08-26T14:05:59.513Z,5484.00
2022-08-26T14:06:59.335Z,5252.00
2022-08-26T14:08:59.404Z,5352.00
2022-08-26T14:11:01.079Z,5688.00
2022-08-26T14:13:59.562Z,5244.00
2022-08-26T14:14:59.798Z,4932.00
2022-08-26T14:26:00.241Z,3772.00
2022-08-26T15:17:02.873Z,7000.00
2022-08-26T15:22:01.716Z,6932.00
2022-08-26T15:23:06.203Z,6840.00
2022-08-26T15:24:01.795Z,6652.00
2022-08-26T15:25:01.836Z,6304.00
2022-08-26T15:26:01.858Z,6036.00
2022-08-26T15:32:02.249Z,4684.00
2022-08-26T15:34:02.715Z,5060.00
2022-08-26T15:35:06.829Z,5236.00
2022-08-26T15:40:02.377Z,5944.00
2022-08-26T15:42:02.763Z,5560.00
2022-08-26T15:46:02.714Z,5348.00
2022-08-26T15:47:03.283Z,5372.00
2022-08-26T15:51:02.643Z,5088.00
2022-08-26T15:53:02.926Z,4756.00
2022-08-26T15:54:02.736Z,4584.00
2022-08-26T15:56:03.002Z,4172.00
2022-08-26T15:57:06.200Z,3944.00
2022-08-26T15:58:03.123Z,3760.00
2022-08-26T15:59:03.609Z,3628.00
2022-08-26T16:00:03.002Z,3524.00
2022-08-26T16:01:03.674Z,3364.00
2022-08-26T16:02:03.215Z,3188.00
2022-08-26T16:06:03.493Z,2596.00
2022-08-26T16:08:04.092Z,2368.00
2022-08-26T16:13:04.050Z,2064.00
2022-08-26T16:14:03.877Z,1992.00
2022-08-26T16:17:03.752Z,1992.00
2022-08-26T16:18:03.493Z,2044.00
2022-08-26T16:20:04.872Z,2048.00
2022-08-26T16:21:13.274Z,1992.00
2022-08-26T16:22:03.618Z,1912.00
2022-08-26T16:27:03.774Z,1964.00
2022-08-26T16:29:04.348Z,1804.00
2022-08-26T16:31:04.354Z,2036.00
2022-08-26T16:33:04.567Z,2356.00
2022-08-26T16:37:04.082Z,2792.00
2022-08-26T16:38:04.120Z,2796.00
2022-08-26T16:39:04.144Z,2784.00
2022-08-26T16:40:04.225Z,2736.00
2022-08-26T16:41:04.211Z,2648.00
2022-08-26T16:44:04.708Z,2360.00
2022-08-26T16:48:05.032Z,2096.00
2022-08-26T16:49:04.471Z,2056.00
2022-08-26T16:51:04.524Z,2032.00
2022-08-26T16:52:04.752Z,1928.00
2022-08-26T16:55:04.953Z,1872.00
2022-08-26T16:58:04.739Z,1724.00
2022-08-26T17:00:05.111Z,1432.00
2022-08-26T17:01:05.036Z,1260.00
2022-08-26T17:03:05.367Z,1124.00
2022-08-26T17:04:04.914Z,1136.00
2022-08-26T17:05:05.767Z,1124.00
2022-08-26T17:06:04.993Z,1072.00
2022-08-26T17:07:05.219Z,1008.00
2022-08-26T17:08:05.049Z,960.00
2022-08-26T17:09:05.078Z,936.00
2022-08-26T17:11:05.143Z,896.00
2022-08-26T17:12:05.169Z,884.00
2022-08-26T17:13:05.220Z,880.00
2022-08-26T17:14:05.440Z,864.00
2022-08-26T17:15:05.281Z,844.00
2022-08-26T17:17:05.837Z,796.00
2022-08-26T17:18:05.762Z,792.00
2022-08-26T17:19:05.387Z,808.00
2022-08-26T17:20:05.425Z,824.00
2022-08-26T17:21:05.449Z,824.00
2022-08-26T17:22:06.150Z,804.00
2022-08-26T17:23:05.586Z,784.00
2022-08-26T17:24:05.834Z,768.00
2022-08-26T17:25:05.764Z,752.00
2022-08-26T17:27:06.349Z,700.00
2022-08-26T17:28:06.823Z,672.00
2022-08-26T17:31:06.049Z,600.00
2022-08-26T17:33:10.900Z,532.00
2022-08-26T17:34:05.841Z,496.00
2022-08-26T17:35:05.869Z,460.00
2022-08-26T17:36:05.917Z,436.00
2022-08-26T17:37:05.941Z,408.00
2022-08-26T17:38:06.028Z,388.00
2022-08-26T17:40:06.091Z,348.00
2022-08-26T17:42:06.406Z,308.00
2022-08-26T17:43:10.326Z,284.00
2022-08-26T17:44:06.158Z,264.00
2022-08-26T17:45:06.651Z,240.00
2022-08-26T17:46:06.965Z,224.00
2022-08-26T17:47:06.249Z,212.00
2022-08-26T17:48:06.381Z,208.00
2022-08-26T17:49:06.309Z,200.00
2022-08-26T17:51:06.359Z,204.00
2022-08-26T17:52:10.956Z,200.00
2022-08-26T17:54:06.464Z,204.00
2022-08-26T17:56:06.727Z,196.00
2022-08-26T17:57:06.547Z,192.00
2022-08-26T17:58:07.185Z,188.00
2022-08-26T17:59:06.605Z,180.00
2022-08-26T18:00:06.634Z,180.00
2022-08-26T18:01:06.705Z,172.00
2022-08-26T18:02:06.694Z,168.00
2022-08-26T18:03:06.737Z,168.00
2022-08-26T18:04:06.791Z,172.00
2022-08-26T18:05:06.790Z,172.00
2022-08-26T18:06:06.817Z,172.00
2022-08-26T18:07:06.849Z,180.00
2022-08-26T18:08:06.883Z,184.00
2022-08-26T18:09:06.911Z,180.00
2022-08-26T18:10:11.250Z,172.00
2022-08-26T18:11:06.971Z,164.00
2022-08-26T18:12:07.000Z,152.00
2022-08-26T18:13:07.048Z,144.00
2022-08-26T18:14:07.064Z,136.00
2022-08-26T18:15:07.099Z,128.00
2022-08-26T18:16:07.179Z,120.00
2022-08-26T18:17:07.153Z,116.00
2022-08-26T18:18:07.240Z,108.00
2022-08-26T18:19:07.217Z,104.00
2022-08-26T18:20:07.250Z,100.00
2022-08-26T18:21:07.274Z,96.00
2022-08-26T18:22:07.308Z,92.00
2022-08-26T18:23:07.359Z,88.00
2022-08-26T18:24:11.045Z,92.00
2022-08-26T18:25:07.396Z,88.00
2022-08-26T18:26:07.439Z,84.00
2022-08-26T18:27:07.463Z,84.00
2022-08-26T18:28:07.499Z,76.00
2022-08-26T18:29:07.521Z,72.00
2022-08-26T18:30:07.556Z,68.00
2022-08-26T18:31:07.743Z,64.00
2022-08-26T18:32:07.617Z,56.00
2022-08-26T18:33:07.646Z,48.00
2022-08-26T18:34:07.678Z,40.00
2022-08-26T18:35:07.704Z,32.00
2022-08-26T18:36:07.733Z,24.00
2022-08-26T18:38:11.142Z,12.00
2022-08-26T18:39:07.825Z,16.00
2022-08-26T18:40:07.923Z,12.00
2022-08-26T18:41:07.885Z,8.00
2022-08-26T18:42:07.925Z,8.00
2022-08-26T18:43:07.946Z,4.00
2022-08-26T18:44:11.622Z,4.00
2022-08-26T18:45:08.007Z,4.00
2022-08-26T18:46:08.101Z,4.00
2022-08-26T18:52:08.220Z,0.00
2022-08-26T18:53:08.464Z,0.00
2022-08-26T18:54:08.362Z,4.00
2022-08-26T18:56:08.958Z,0.00
2022-08-26T18:57:08.385Z,0.00
2022-08-26T18:58:08.693Z,0.00
2022-08-26T18:59:08.454Z,0.00
2022-08-26T19:01:08.795Z,0.00
2022-08-26T19:02:08.670Z,0.00
2022-08-26T19:03:18.927Z,0.00
2022-08-26T19:04:08.597Z,0.00
2022-08-26T19:05:08.626Z,0.00
2022-08-26T19:06:08.660Z,0.00
2022-08-26T19:07:08.885Z,0.00
2022-08-26T19:08:09.035Z,0.00
2022-08-26T19:09:09.352Z,0.00
2022-08-26T19:10:08.778Z,0.00
2022-08-26T19:11:08.809Z,0.00
2022-08-26T19:12:09.045Z,0.00
2022-08-26T19:13:08.872Z,0.00
2022-08-26T19:14:09.212Z,0.00
2022-08-26T19:15:08.926Z,0.00
2022-08-26T19:16:09.572Z,0.00
2022-08-26T19:17:09.234Z,0.00
2022-08-26T19:18:09.724Z,0.00
2022-08-26T19:19:09.459Z,0.00
2022-08-26T19:20:09.487Z,0.00
2022-08-26T19:21:09.111Z,0.00
2022-08-26T19:22:09.142Z,0.00
2022-08-26T19:23:28.232Z,0.00
2022-08-26T19:24:09.208Z,0.00
2022-08-26T19:25:09.440Z,0.00
2022-08-26T19:26:09.872Z,0.00
2022-08-26T19:27:14.176Z,0.00
2022-08-26T19:30:09.994Z,0.00
2022-08-26T19:31:09.470Z,0.00
2022-08-26T19:32:09.852Z,0.00